createdAt,value
2023-05-20T00:01:09.333Z,13.35
2023-05-20T00:03:54.933Z,13.32
2023-05-20T00:06:40.402Z,13.30
2023-05-20T00:09:26.227Z,13.29
2023-05-20T00:12:11.650Z,13.28
2023-05-20T00:14:57.167Z,13.26
2023-05-20T00:17:42.775Z,13.24
2023-05-20T00:20:28.355Z,13.21
2023-05-20T00:23:14.230Z,13.16
2023-05-20T00:26:00.837Z,13.13
2023-05-20T00:28:46.869Z,13.09
2023-05-20T00:31:32.475Z,13.04
2023-05-20T00:34:17.979Z,13.00
2023-05-20T00:37:03.371Z,12.97
2023-05-20T00:39:48.712Z,12.95
2023-05-20T00:42:34.207Z,12.94
2023-05-20T00:45:19.511Z,12.93
2023-05-20T00:48:06.077Z,12.91
2023-05-20T00:50:52.127Z,12.91
2023-05-20T00:53:38.917Z,12.91
2023-05-20T00:56:25.179Z,12.89
2023-05-20T00:59:11.212Z,12.89
2023-05-20T01:01:57.533Z,12.88
2023-05-20T01:04:47.343Z,12.86
2023-05-20T01:07:34.120Z,12.86
2023-05-20T01:10:19.869Z,12.86
2023-05-20T01:13:09.365Z,12.84
2023-05-20T01:15:56.502Z,12.86
2023-05-20T01:18:43.756Z,12.87
2023-05-20T01:21:31.008Z,12.87
2023-05-20T01:24:16.521Z,12.88
2023-05-20T01:27:02.088Z,12.88
2023-05-20T01:29:50.830Z,12.88
2023-05-20T01:32:43.163Z,12.88
2023-05-20T01:35:29.327Z,12.88
2023-05-20T01:38:18.638Z,12.87
2023-05-20T01:41:07.413Z,12.86
2023-05-20T01:43:52.886Z,12.87
2023-05-20T01:46:38.721Z,12.87
2023-05-20T01:49:24.202Z,12.87
2023-05-20T01:52:09.896Z,12.86
2023-05-20T01:54:55.668Z,12.84
2023-05-20T01:57:41.218Z,12.84
2023-05-20T02:00:27.021Z,12.84
2023-05-20T02:03:12.551Z,12.85
2023-05-20T02:05:58.392Z,12.84
2023-05-20T02:08:44.759Z,12.84
2023-05-20T02:11:30.331Z,12.84
2023-05-20T02:14:16.083Z,12.84
2023-05-20T02:17:03.519Z,12.81
2023-05-20T02:19:49.677Z,12.80
2023-05-20T02:22:35.522Z,12.80
2023-05-20T02:25:22.087Z,12.81
2023-05-20T02:28:10.927Z,12.80
2023-05-20T02:30:56.500Z,12.80
2023-05-20T02:33:42.029Z,12.80
2023-05-20T02:36:32.550Z,12.80
2023-05-20T02:39:20.092Z,12.81
2023-05-20T02:42:05.771Z,12.82
2023-05-20T02:44:53.466Z,12.81
2023-05-20T02:47:38.692Z,12.80
2023-05-20T02:50:24.219Z,12.78
2023-05-20T02:53:09.865Z,12.77
2023-05-20T02:55:55.823Z,12.76
2023-05-20T02:58:41.806Z,12.73
2023-05-20T03:01:27.597Z,12.73
2023-05-20T03:04:12.989Z,12.71
2023-05-20T03:06:58.299Z,12.71
2023-05-20T03:09:44.084Z,12.71
2023-05-20T03:12:30.717Z,12.71
2023-05-20T03:15:16.381Z,12.71
2023-05-20T03:18:02.857Z,12.71
2023-05-20T03:20:48.436Z,12.71
2023-05-20T03:23:34.156Z,12.71
2023-05-20T03:26:19.905Z,12.69
2023-05-20T03:29:05.875Z,12.68
2023-05-20T03:31:52.039Z,12.69
2023-05-20T03:34:38.548Z,12.70
2023-05-20T03:37:24.348Z,12.71
2023-05-20T03:40:10.632Z,12.72
2023-05-20T03:42:57.402Z,12.71
2023-05-20T03:45:43.804Z,12.71
2023-05-20T03:48:29.365Z,12.72
2023-05-20T03:51:14.743Z,12.72
2023-05-20T03:54:01.242Z,12.73
2023-05-20T03:56:47.163Z,12.73
2023-05-20T03:59:32.782Z,12.74
2023-05-20T04:02:18.399Z,12.74
2023-05-20T04:05:04.093Z,12.75
2023-05-20T04:07:49.905Z,12.75
2023-05-20T04:10:36.974Z,12.74
2023-05-20T04:13:22.819Z,12.74
2023-05-20T04:16:08.150Z,12.75
2023-05-20T04:18:53.804Z,12.76
2023-05-20T04:21:39.724Z,12.75
2023-05-20T04:24:25.685Z,12.75
2023-05-20T04:27:12.059Z,12.75
2023-05-20T04:29:58.993Z,12.76
2023-05-20T04:32:44.885Z,12.75
2023-05-20T04:35:30.619Z,12.75
2023-05-20T04:38:22.108Z,12.76
2023-05-20T04:41:09.465Z,12.76
2023-05-20T04:43:59.867Z,12.74
2023-05-20T04:46:46.332Z,12.74
2023-05-20T04:49:33.724Z,12.78
2023-05-20T04:52:19.542Z,12.78
2023-05-20T04:55:08.309Z,12.79
2023-05-20T04:57:54.012Z,12.80
2023-05-20T05:00:39.605Z,12.80
2023-05-20T05:03:25.301Z,12.81
2023-05-20T05:06:10.906Z,12.84
2023-05-20T05:08:56.754Z,12.87
2023-05-20T05:11:42.673Z,12.88
2023-05-20T05:14:28.202Z,12.90
2023-05-20T05:17:14.314Z,12.91
2023-05-20T05:19:59.807Z,12.91
2023-05-20T05:22:50.824Z,12.93
2023-05-20T05:25:37.951Z,12.95
2023-05-20T05:28:23.832Z,12.94
2023-05-20T05:31:09.611Z,12.97
2023-05-20T05:33:55.361Z,12.98
2023-05-20T05:36:41.157Z,12.99
2023-05-20T05:39:26.641Z,13.01
2023-05-20T05:42:12.263Z,13.02
2023-05-20T05:44:58.137Z,13.03
2023-05-20T05:47:44.767Z,13.02
2023-05-20T05:50:30.813Z,13.03
2023-05-20T05:53:16.562Z,13.05
2023-05-20T05:56:06.592Z,13.06
2023-05-20T05:58:52.287Z,13.06
2023-05-20T06:01:38.055Z,13.06
2023-05-20T06:04:23.709Z,13.06
2023-05-20T06:07:11.832Z,13.07
2023-05-20T06:09:57.635Z,13.07
2023-05-20T06:12:43.073Z,13.08
2023-05-20T06:15:29.003Z,13.07
2023-05-20T06:18:15.537Z,13.08
2023-05-20T06:21:01.330Z,13.08
2023-05-20T06:23:46.978Z,13.09
2023-05-20T06:26:33.336Z,13.09
2023-05-20T06:29:18.682Z,13.11
2023-05-20T06:32:04.318Z,13.15
2023-05-20T06:34:50.311Z,13.16
2023-05-20T06:37:36.262Z,13.21
2023-05-20T06:40:21.613Z,13.23
2023-05-20T06:43:07.107Z,13.25
2023-05-20T06:46:11.117Z,13.26
2023-05-20T06:49:12.723Z,13.28
2023-05-20T06:51:58.177Z,13.30
2023-05-20T06:54:43.591Z,13.30
2023-05-20T06:57:30.312Z,13.33
2023-05-20T07:00:16.573Z,13.37
2023-05-20T07:03:02.165Z,13.40
2023-05-20T07:05:48.397Z,13.42
2023-05-20T07:08:34.199Z,13.43
2023-05-20T07:11:20.136Z,13.43
2023-05-20T07:14:05.953Z,13.45
2023-05-20T07:16:52.015Z,13.48
2023-05-20T07:19:37.733Z,13.52
2023-05-20T07:22:23.460Z,13.55
2023-05-20T07:25:22.355Z,13.56
2023-05-20T07:28:08.123Z,13.56
2023-05-20T07:30:56.207Z,13.57
2023-05-20T07:33:49.445Z,13.61
2023-05-20T07:36:35.461Z,13.61
2023-05-20T07:39:24.670Z,13.61
2023-05-20T07:42:10.165Z,13.61
2023-05-20T07:44:58.188Z,13.63
2023-05-20T07:47:43.826Z,13.61
2023-05-20T07:50:29.361Z,13.62
2023-05-20T07:53:15.820Z,13.64
2023-05-20T07:56:02.219Z,13.67
2023-05-20T07:59:01.347Z,13.70
2023-05-20T08:01:50.604Z,13.74
2023-05-20T08:04:38.862Z,13.78
2023-05-20T08:07:25.314Z,13.84
2023-05-20T08:10:13.020Z,13.89
2023-05-20T08:12:58.650Z,13.91
2023-05-20T08:15:44.526Z,13.99
2023-05-20T08:18:30.826Z,14.08
2023-05-20T08:21:17.228Z,14.18
2023-05-20T08:24:02.797Z,14.24
2023-05-20T08:26:49.492Z,14.31
2023-05-20T08:29:36.954Z,14.41
2023-05-20T08:32:23.714Z,14.51
2023-05-20T08:35:09.852Z,14.59
2023-05-20T08:37:55.601Z,14.67
2023-05-20T08:40:41.282Z,14.75
2023-05-20T08:43:27.934Z,14.86
2023-05-20T08:46:15.125Z,15.04
2023-05-20T08:49:02.753Z,15.21
2023-05-20T08:51:49.469Z,15.37
2023-05-20T08:54:46.086Z,15.52
2023-05-20T08:57:34.107Z,15.67
2023-05-20T09:00:20.365Z,15.83
2023-05-20T09:03:06.014Z,15.99
2023-05-20T09:05:54.043Z,16.12
2023-05-20T09:08:39.594Z,16.25
2023-05-20T09:11:25.046Z,16.42
2023-05-20T09:14:10.772Z,16.55
2023-05-20T09:16:56.079Z,16.69
2023-05-20T09:19:41.940Z,16.81
2023-05-20T09:22:28.629Z,16.94
2023-05-20T09:25:14.341Z,17.04
2023-05-20T09:28:00.043Z,17.08
2023-05-20T09:30:46.141Z,17.14
2023-05-20T09:33:32.230Z,17.23
2023-05-20T09:36:20.278Z,17.27
2023-05-20T09:39:10.003Z,17.26
2023-05-20T09:42:09.625Z,17.30
2023-05-20T09:44:56.540Z,17.37
2023-05-20T09:47:43.528Z,17.46
2023-05-20T09:50:30.527Z,17.59
2023-05-20T09:53:17.061Z,17.76
2023-05-20T09:56:03.511Z,17.90
2023-05-20T09:58:50.278Z,18.06
2023-05-20T10:01:36.180Z,18.21
2023-05-20T10:04:26.141Z,18.36
2023-05-20T10:07:12.022Z,18.49
2023-05-20T10:10:14.686Z,18.57
2023-05-20T10:13:15.058Z,18.64
2023-05-20T10:16:24.890Z,18.72
2023-05-20T10:19:16.391Z,18.88
2023-05-20T10:22:04.226Z,19.02
2023-05-20T10:24:59.657Z,19.17
2023-05-20T10:27:46.532Z,19.26
2023-05-20T10:30:32.044Z,19.34
2023-05-20T10:33:18.951Z,19.40
2023-05-20T10:36:04.489Z,19.47
2023-05-20T10:38:53.852Z,19.52
2023-05-20T10:41:39.751Z,19.60
2023-05-20T10:44:25.452Z,19.69
2023-05-20T10:49:59.646Z,19.81
2023-05-20T10:52:45.777Z,19.87
2023-05-20T10:55:37.442Z,19.98
2023-05-20T10:58:24.578Z,20.06
2023-05-20T11:01:10.975Z,20.14
2023-05-20T11:03:58.104Z,20.16
2023-05-20T11:06:56.172Z,20.17
2023-05-20T11:09:50.910Z,20.18
2023-05-20T11:12:37.162Z,20.22
2023-05-20T11:15:26.392Z,20.28
2023-05-20T11:18:16.130Z,20.35
2023-05-20T11:21:03.786Z,20.34
2023-05-20T11:23:52.134Z,20.31
2023-05-20T11:26:37.651Z,20.38
2023-05-20T11:29:23.255Z,20.50
2023-05-20T11:32:09.186Z,20.64
2023-05-20T11:34:54.839Z,20.77
2023-05-20T11:37:42.209Z,20.90
2023-05-20T11:40:32.905Z,21.02
2023-05-20T11:43:24.770Z,21.15
2023-05-20T11:46:10.594Z,21.23
2023-05-20T11:48:57.383Z,21.35
2023-05-20T11:51:44.731Z,21.40
2023-05-20T11:54:30.161Z,21.51
2023-05-20T11:57:16.279Z,21.64
2023-05-20T12:00:02.140Z,21.70
2023-05-20T12:02:50.358Z,21.80
2023-05-20T12:05:36.265Z,21.88
2023-05-20T12:08:22.902Z,22.01
2023-05-20T12:11:08.743Z,21.96
2023-05-20T12:13:54.948Z,21.96
2023-05-20T12:16:40.354Z,22.02
2023-05-20T12:19:26.249Z,22.10
2023-05-20T12:22:12.082Z,22.24
2023-05-20T12:24:57.821Z,22.36
2023-05-20T12:27:48.265Z,22.48
2023-05-20T12:30:34.579Z,22.56
2023-05-20T12:33:20.924Z,22.63
2023-05-20T12:36:07.284Z,22.68
2023-05-20T12:38:52.840Z,22.69
2023-05-20T12:41:38.361Z,22.73
2023-05-20T12:44:24.104Z,22.75
2023-05-20T12:47:10.383Z,22.72
2023-05-20T12:49:55.952Z,22.74
2023-05-20T12:52:41.875Z,22.82
2023-05-20T12:55:27.513Z,22.88
2023-05-20T12:58:13.673Z,22.86
2023-05-20T13:00:59.687Z,22.91
2023-05-20T13:03:45.228Z,22.98
2023-05-20T13:06:31.742Z,23.02
2023-05-20T13:09:17.521Z,23.13
2023-05-20T13:12:03.125Z,23.23
2023-05-20T13:14:48.911Z,23.29
2023-05-20T13:17:34.597Z,23.38
2023-05-20T13:20:20.210Z,23.48
2023-05-20T13:23:05.614Z,23.54
2023-05-20T13:25:51.072Z,23.62
2023-05-20T13:28:36.778Z,23.64
2023-05-20T13:31:22.532Z,23.61
2023-05-20T13:34:08.310Z,23.58
2023-05-20T13:36:53.690Z,23.49
2023-05-20T13:39:39.028Z,23.38
2023-05-20T13:42:24.461Z,23.29
2023-05-20T13:45:10.179Z,23.26
2023-05-20T13:47:56.004Z,23.18
2023-05-20T13:50:41.811Z,23.03
2023-05-20T13:53:27.648Z,22.94
2023-05-20T13:56:13.243Z,22.91
2023-05-20T13:58:58.687Z,22.81
2023-05-20T14:01:45.514Z,22.70
2023-05-20T14:04:31.757Z,22.65
2023-05-20T14:07:17.197Z,22.59
2023-05-20T14:10:02.859Z,22.54
2023-05-20T14:12:48.365Z,22.52
2023-05-20T14:15:34.031Z,22.48
2023-05-20T14:18:19.777Z,22.46
2023-05-20T14:21:06.055Z,22.38
2023-05-20T14:23:51.870Z,22.32
2023-05-20T14:26:37.335Z,22.35
2023-05-20T14:29:22.802Z,22.34
2023-05-20T14:32:09.164Z,22.35
2023-05-20T14:34:54.841Z,22.34
2023-05-20T14:37:40.254Z,22.37
2023-05-20T14:40:25.716Z,22.42
2023-05-20T14:43:11.512Z,22.37
2023-05-20T14:45:57.087Z,22.31
2023-05-20T14:48:42.741Z,22.28
2023-05-20T14:51:28.553Z,22.26
2023-05-20T14:54:15.200Z,22.26
2023-05-20T14:57:01.256Z,22.30
2023-05-20T14:59:46.928Z,22.37
2023-05-20T15:02:32.383Z,22.41
2023-05-20T15:05:18.223Z,22.40
2023-05-20T15:08:03.977Z,22.37
2023-05-20T15:10:50.601Z,22.38
2023-05-20T15:13:38.288Z,22.46
2023-05-20T15:16:25.684Z,22.57
2023-05-20T15:19:13.560Z,22.66
2023-05-20T15:21:59.170Z,22.73
2023-05-20T15:24:45.052Z,22.79
2023-05-20T15:27:30.727Z,22.78
2023-05-20T15:30:17.301Z,22.75
2023-05-20T15:33:03.262Z,22.70
2023-05-20T15:35:49.063Z,22.65
2023-05-20T15:38:34.824Z,22.59
2023-05-20T15:41:21.799Z,22.51
2023-05-20T15:44:07.265Z,22.44
2023-05-20T15:46:53.069Z,22.46
2023-05-20T15:49:38.556Z,22.43
2023-05-20T15:52:24.093Z,22.36
2023-05-20T15:55:10.271Z,22.30
2023-05-20T15:57:56.044Z,22.21
2023-05-20T16:00:42.269Z,22.15
2023-05-20T16:03:27.958Z,22.07
2023-05-20T16:06:13.516Z,22.08
2023-05-20T16:08:58.959Z,22.01
2023-05-20T16:11:44.234Z,21.94
2023-05-20T16:14:29.904Z,21.92
2023-05-20T16:17:17.077Z,21.90
2023-05-20T16:20:07.030Z,21.82
2023-05-20T16:22:52.817Z,21.78
2023-05-20T16:25:38.399Z,21.75
2023-05-20T16:28:25.490Z,21.73
2023-05-20T16:31:11.218Z,21.73
2023-05-20T16:33:57.527Z,21.72
2023-05-20T16:36:42.808Z,21.71
2023-05-20T16:39:28.325Z,21.72
2023-05-20T16:42:13.652Z,21.70
2023-05-20T16:44:59.228Z,21.67
2023-05-20T16:47:44.833Z,21.65
2023-05-20T16:50:30.339Z,21.64
2023-05-20T16:53:16.658Z,21.59
2023-05-20T16:56:02.073Z,21.54
2023-05-20T16:58:47.876Z,21.52
2023-05-20T17:01:34.107Z,21.52
2023-05-20T17:04:19.787Z,21.52
2023-05-20T17:07:05.203Z,21.48
2023-05-20T17:09:50.471Z,21.48
2023-05-20T17:12:36.017Z,21.48
2023-05-20T17:15:23.404Z,21.47
2023-05-20T17:18:11.339Z,21.46
2023-05-20T17:20:57.042Z,21.44
2023-05-20T17:23:42.610Z,21.42
2023-05-20T17:26:28.104Z,21.42
2023-05-20T17:29:13.567Z,21.39
2023-05-20T17:31:59.017Z,21.34
2023-05-20T17:34:44.369Z,21.27
2023-05-20T17:37:30.036Z,21.22
2023-05-20T17:40:15.906Z,21.18
2023-05-20T17:43:01.532Z,21.08
2023-05-20T17:45:48.026Z,21.03
2023-05-20T17:48:33.312Z,21.02
2023-05-20T17:51:19.194Z,20.99
2023-05-20T17:54:04.654Z,20.95
2023-05-20T17:56:51.217Z,20.86
2023-05-20T17:59:37.117Z,20.79
2023-05-20T18:02:22.734Z,20.75
2023-05-20T18:05:10.909Z,20.73
2023-05-20T18:07:57.422Z,20.68
2023-05-20T18:10:43.069Z,20.62
2023-05-20T18:13:28.556Z,20.55
2023-05-20T18:16:13.876Z,20.50
2023-05-20T18:18:59.792Z,20.45
2023-05-20T18:21:45.356Z,20.41
2023-05-20T18:24:30.797Z,20.35
2023-05-20T18:27:16.618Z,20.26
2023-05-20T18:30:01.925Z,20.16
2023-05-20T18:32:47.417Z,20.10
2023-05-20T18:35:33.749Z,20.03
2023-05-20T18:38:19.037Z,19.96
2023-05-20T18:41:05.435Z,19.88
2023-05-20T18:43:50.983Z,19.80
2023-05-20T18:46:36.462Z,19.69
2023-05-20T18:49:21.632Z,19.63
2023-05-20T18:52:07.371Z,19.55
2023-05-20T18:54:53.363Z,19.49
2023-05-20T18:57:39.608Z,19.45
2023-05-20T19:00:25.480Z,19.42
2023-05-20T19:03:11.733Z,19.36
2023-05-20T19:05:57.157Z,19.31
2023-05-20T19:08:43.884Z,19.23
2023-05-20T19:11:29.772Z,19.20
2023-05-20T19:14:15.660Z,19.15
2023-05-20T19:17:01.283Z,19.10
2023-05-20T19:19:47.459Z,19.03
2023-05-20T19:22:34.259Z,18.97
2023-05-20T19:25:20.274Z,18.88
2023-05-20T19:28:05.852Z,18.82
2023-05-20T19:30:51.567Z,18.74
2023-05-20T19:33:37.002Z,18.70
2023-05-20T19:36:22.508Z,18.64
2023-05-20T19:39:08.758Z,18.57
2023-05-20T19:41:54.401Z,18.49
2023-05-20T19:44:40.044Z,18.39
2023-05-20T19:47:25.401Z,18.31
2023-05-20T19:50:11.226Z,18.22
2023-05-20T19:52:56.915Z,18.16
2023-05-20T19:55:42.359Z,18.11
2023-05-20T19:58:28.061Z,18.06
2023-05-20T20:01:14.309Z,18.02
2023-05-20T20:03:59.885Z,18.01
2023-05-20T20:06:46.170Z,18.01
2023-05-20T20:09:31.721Z,18.00
2023-05-20T20:12:17.841Z,18.01
2023-05-20T20:15:04.212Z,18.01
2023-05-20T20:17:52.347Z,18.01
2023-05-20T20:20:40.820Z,18.02
2023-05-20T20:23:27.108Z,18.02
2023-05-20T20:26:13.902Z,18.00
2023-05-20T20:28:59.524Z,17.96
2023-05-20T20:31:45.210Z,17.94
2023-05-20T20:34:30.730Z,17.91
2023-05-20T20:37:17.423Z,17.90
2023-05-20T20:40:04.161Z,17.88
2023-05-20T20:42:50.126Z,17.88
2023-05-20T20:45:38.639Z,17.86
2023-05-20T20:48:27.471Z,17.85
2023-05-20T20:51:14.531Z,17.85
2023-05-20T20:54:00.653Z,17.86
2023-05-20T20:56:47.237Z,17.84
2023-05-20T20:59:33.081Z,17.86
2023-05-20T21:02:18.842Z,17.85
2023-05-20T21:05:04.709Z,17.84
2023-05-20T21:07:52.682Z,17.84
2023-05-20T21:10:38.311Z,17.84
2023-05-20T21:13:24.081Z,17.84
2023-05-20T21:16:09.690Z,17.85
2023-05-20T21:18:55.268Z,17.86
2023-05-20T21:21:41.210Z,17.83
2023-05-20T21:24:26.831Z,17.81
2023-05-20T21:27:12.968Z,17.80
2023-05-20T21:29:58.506Z,17.79
2023-05-20T21:32:44.432Z,17.78
2023-05-20T21:35:30.172Z,17.76
2023-05-20T21:38:15.885Z,17.77
2023-05-20T21:41:01.821Z,17.76
2023-05-20T21:43:47.281Z,17.76
2023-05-20T21:46:33.366Z,17.77
2023-05-20T21:49:18.797Z,17.78
2023-05-20T21:52:04.249Z,17.76
2023-05-20T21:54:49.760Z,17.74
2023-05-20T21:57:35.865Z,17.72
2023-05-20T22:00:21.763Z,17.68
2023-05-20T22:03:07.754Z,17.61
2023-05-20T22:05:53.872Z,17.56
2023-05-20T22:08:40.839Z,17.53
2023-05-20T22:11:26.811Z,17.52
2023-05-20T22:14:16.427Z,17.51
2023-05-20T22:17:03.253Z,17.49
2023-05-20T22:19:49.937Z,17.49
2023-05-20T22:22:39.287Z,17.48
2023-05-20T22:25:25.072Z,17.48
2023-05-20T22:28:10.704Z,17.46
2023-05-20T22:30:56.198Z,17.45
2023-05-20T22:33:42.378Z,17.42
2023-05-20T22:36:28.264Z,17.41
2023-05-20T22:39:13.536Z,17.39
2023-05-20T22:41:59.104Z,17.33
2023-05-20T22:44:44.321Z,17.30
2023-05-20T22:47:29.691Z,17.29
2023-05-20T22:50:15.054Z,17.26
2023-05-20T22:53:00.864Z,17.23
2023-05-20T22:55:48.803Z,17.21
2023-05-20T22:58:39.414Z,17.20
2023-05-20T23:01:25.140Z,17.19
2023-05-20T23:04:11.054Z,17.15
2023-05-20T23:06:59.184Z,17.13
2023-05-20T23:09:46.581Z,17.10
2023-05-20T23:12:32.009Z,17.08
2023-05-20T23:15:17.486Z,17.03
2023-05-20T23:18:02.784Z,16.98
2023-05-20T23:20:48.931Z,16.95
2023-05-20T23:23:34.345Z,16.93
2023-05-20T23:26:19.690Z,16.91
2023-05-20T23:29:05.331Z,16.90
2023-05-20T23:31:51.197Z,16.88
2023-05-20T23:34:36.723Z,16.86
2023-05-20T23:37:22.505Z,16.82
2023-05-20T23:40:11.828Z,16.80
2023-05-20T23:42:57.496Z,16.78
2023-05-20T23:45:43.193Z,16.77
2023-05-20T23:48:28.857Z,16.75
2023-05-20T23:51:14.586Z,16.73
2023-05-20T23:54:00.194Z,16.71
2023-05-20T23:56:46.324Z,16.67
2023-05-20T23:59:32.184Z,16.65
